Time;durP1;ratioP1;P1;durP2;ratioP2;P2;SDS_P1;SDS_P2;PMS_P1;PMS_P2;Temp;Humidity;BMP_temperature;BMP_pressure;BME280_temperature;BME280_humidity;BME280_pressure;Samples;Min_cycle;Max_cycle;Signal;HPM_P1;HPM_P2
2022/05/08 00:02:16;;;;;;;9.03;6.70;;;13.30;99.90;;;;;;5113812;28;20555;-68
2022/05/08 00:04:42;;;;;;;9.83;6.60;;;13.40;99.90;;;;;;5097140;28;20186;-68
2022/05/08 00:07:07;;;;;;;12.90;7.87;;;13.50;99.90;;;;;;5117285;28;20284;-69
2022/05/08 00:09:33;;;;;;;9.37;6.63;;;13.40;99.90;;;;;;5098797;28;20284;-70
2022/05/08 00:11:59;;;;;;;8.90;6.73;;;13.30;99.90;;;;;;5098934;28;20189;-68
2022/05/08 00:14:25;;;;;;;10.70;6.60;;;13.20;99.90;;;;;;5117152;28;20166;-70
2022/05/08 00:16:50;;;;;;;11.43;5.70;;;13.20;99.90;;;;;;5117574;28;20236;-69
2022/05/08 00:19:16;;;;;;;7.17;6.37;;;13.30;99.90;;;;;;5117569;28;20158;-69
2022/05/08 00:21:42;;;;;;;7.87;6.57;;;13.30;99.90;;;;;;5098935;28;20281;-68
2022/05/08 00:24:08;;;;;;;8.97;6.50;;;13.20;99.90;;;;;;5116990;28;20606;-68
2022/05/08 00:26:34;;;;;;;8.67;5.93;;;13.10;99.90;;;;;;5116568;28;20214;-68
2022/05/08 00:29:00;;;;;;;7.73;6.30;;;13.00;99.90;;;;;;5099449;28;20210;-68
2022/05/08 00:31:25;;;;;;;9.00;6.37;;;13.00;99.90;;;;;;5116704;28;20315;-67
2022/05/08 00:33:52;;;;;;;10.40;6.67;;;13.00;99.90;;;;;;5098498;28;20189;-69
2022/05/08 00:36:18;;;;;;;8.70;6.10;;;13.00;99.90;;;;;;5099124;28;20170;-69
2022/05/08 00:38:44;;;;;;;7.50;6.03;;;12.80;99.90;;;;;;5116765;28;20158;-68
2022/05/08 00:41:10;;;;;;;7.73;5.80;;;12.70;99.90;;;;;;5117063;28;20583;-68
2022/05/08 00:43:38;;;;;;;6.47;5.57;;;12.50;99.90;;;;;;5117288;28;20159;-68
2022/05/08 00:46:14;;;;;;;14.07;6.10;;;12.50;99.90;;;;;;5098943;28;20198;-68
2022/05/08 00:48:41;;;;;;;6.37;5.50;;;12.60;99.90;;;;;;5116929;28;20158;-69
2022/05/08 00:51:08;;;;;;;9.90;5.97;;;12.70;99.90;;;;;;5116862;28;20162;-69
2022/05/08 00:53:54;;;;;;;8.97;5.50;;;12.50;99.90;;;;;;5116756;28;20158;-67
2022/05/08 00:56:20;;;;;;;7.07;5.77;;;12.50;99.90;;;;;;5098192;28;20181;-66
2022/05/08 00:58:48;;;;;;;6.73;6.03;;;12.50;99.90;;;;;;5117137;28;20166;-68
2022/05/08 01:01:14;;;;;;;7.30;5.50;;;12.40;99.90;;;;;;5098185;28;20212;-68
2022/05/08 01:03:40;;;;;;;7.03;5.50;;;12.40;99.90;;;;;;5121705;27;20644;-67
2022/05/08 01:06:09;;;;;;;7.07;5.27;;;12.40;99.90;;;;;;5137317;27;20169;-67
2022/05/08 01:08:40;;;;;;;6.37;5.23;;;12.40;99.90;;;;;;5136717;27;20325;-68
2022/05/08 01:11:06;;;;;;;7.50;5.20;;;12.40;99.90;;;;;;5136928;27;20189;-67
2022/05/08 01:13:32;;;;;;;7.57;5.83;;;12.20;99.90;;;;;;5135696;27;20177;-67
2022/05/08 01:15:58;;;;;;;7.30;5.93;;;12.20;99.90;;;;;;5135302;27;20170;-69
2022/05/08 01:18:25;;;;;;;9.97;5.53;;;12.20;99.90;;;;;;5138067;27;20165;-67
2022/05/08 01:20:51;;;;;;;9.00;5.03;;;12.30;99.90;;;;;;5142112;27;20166;-67
2022/05/08 01:23:21;;;;;;;8.63;5.70;;;12.40;99.90;;;;;;5142317;27;20154;-67
2022/05/08 01:25:55;;;;;;;6.77;5.73;;;12.40;99.90;;;;;;5142798;27;20203;-68
2022/05/08 01:28:21;;;;;;;9.47;5.83;;;12.30;99.90;;;;;;5137628;27;20549;-68
2022/05/08 01:30:50;;;;;;;6.70;5.50;;;12.40;99.90;;;;;;5136296;27;20153;-66
2022/05/08 01:33:16;;;;;;;6.37;5.33;;;12.30;99.90;;;;;;5170018;27;20218;-68
2022/05/08 01:35:42;;;;;;;6.83;5.80;;;12.40;99.90;;;;;;5135854;27;20177;-69
2022/05/08 01:38:10;;;;;;;7.73;5.40;;;12.50;99.90;;;;;;5136505;27;20238;-68
2022/05/08 01:40:36;;;;;;;7.00;5.63;;;12.40;99.90;;;;;;5135638;27;20488;-68
2022/05/08 01:43:02;;;;;;;11.20;5.77;;;12.40;99.90;;;;;;5137004;27;20154;-67
2022/05/08 01:45:29;;;;;;;8.17;5.97;;;12.30;99.90;;;;;;5136220;27;20169;-69
2022/05/08 01:50:39;;;;;;;6.00;5.00;;;12.20;99.90;;;;;;5135496;27;20200;-67
2022/05/08 01:53:05;;;;;;;8.20;6.17;;;12.20;99.90;;;;;;5135949;27;20176;-68
2022/05/08 01:55:31;;;;;;;6.97;6.13;;;12.10;99.90;;;;;;5136319;27;20166;-67
2022/05/08 01:57:58;;;;;;;8.73;6.10;;;12.10;99.90;;;;;;5134640;27;20200;-67
2022/05/08 02:00:25;;;;;;;8.43;5.87;;;12.00;99.90;;;;;;5137002;27;20154;-66
2022/05/08 02:02:52;;;;;;;7.60;6.30;;;11.80;99.90;;;;;;5132265;27;20296;-66
2022/05/08 02:05:22;;;;;;;9.07;6.00;;;11.80;99.90;;;;;;5115898;28;20170;-67
2022/05/08 02:07:49;;;;;;;9.63;6.20;;;11.70;99.90;;;;;;5115654;28;20201;-68
2022/05/08 02:10:16;;;;;;;8.87;6.43;;;11.80;99.90;;;;;;5115403;28;20178;-68
2022/05/08 02:12:43;;;;;;;9.53;5.80;;;11.80;99.90;;;;;;5115478;28;20186;-68
2022/05/08 02:15:11;;;;;;;7.10;5.73;;;11.70;99.90;;;;;;5115749;28;20165;-67
2022/05/08 02:17:37;;;;;;;9.57;5.90;;;11.70;99.90;;;;;;5115125;28;20186;-69
2022/05/08 02:20:06;;;;;;;9.70;5.30;;;11.60;99.90;;;;;;5115373;28;20165;-66
2022/05/08 02:22:35;;;;;;;10.70;5.57;;;11.40;99.90;;;;;;5117799;28;20155;-67
2022/05/08 02:25:01;;;;;;;7.03;5.27;;;11.40;99.90;;;;;;5100673;28;20181;-68
2022/05/08 02:27:33;;;;;;;6.87;5.43;;;11.40;99.90;;;;;;5118884;28;20193;-70
2022/05/08 02:29:59;;;;;;;6.20;5.33;;;11.50;99.90;;;;;;5102686;28;20614;-68
2022/05/08 02:32:24;;;;;;;6.57;4.90;;;11.30;99.90;;;;;;5120173;28;20159;-66
2022/05/08 02:34:50;;;;;;;9.30;5.47;;;11.30;99.90;;;;;;5117019;28;20186;-66
2022/05/08 02:37:16;;;;;;;7.27;5.50;;;11.30;99.90;;;;;;5114525;28;20597;-68
2022/05/08 02:39:41;;;;;;;9.87;5.80;;;11.10;99.90;;;;;;5115000;28;20193;-68
2022/05/08 02:42:07;;;;;;;8.90;5.70;;;11.40;99.90;;;;;;5114558;28;20217;-67
2022/05/08 02:44:33;;;;;;;7.57;5.43;;;11.20;99.90;;;;;;5114857;28;20485;-66
2022/05/08 02:46:58;;;;;;;7.50;5.73;;;11.20;99.90;;;;;;5115236;28;20262;-66
2022/05/08 02:49:24;;;;;;;7.27;5.10;;;11.40;99.90;;;;;;5097045;28;20173;-67
2022/05/08 02:51:50;;;;;;;7.40;5.80;;;11.40;99.90;;;;;;5115675;28;20159;-66
2022/05/08 02:54:16;;;;;;;12.43;6.47;;;11.50;99.90;;;;;;5098699;28;20173;-67
2022/05/08 02:59:25;;;;;;;5.90;5.23;;;11.50;99.90;;;;;;5116872;28;20154;-67
2022/05/08 03:01:51;;;;;;;7.17;5.73;;;11.50;99.90;;;;;;5114758;28;20178;-67
2022/05/08 03:04:17;;;;;;;9.97;6.10;;;11.60;99.90;;;;;;5114939;28;20314;-67
2022/05/08 03:06:43;;;;;;;8.43;5.03;;;11.60;99.90;;;;;;5096631;28;20206;-68
2022/05/08 03:09:09;;;;;;;7.60;6.13;;;11.50;99.90;;;;;;5114560;28;20170;-68
2022/05/08 03:11:36;;;;;;;7.60;5.83;;;11.40;99.90;;;;;;5114317;28;20188;-65
2022/05/08 03:14:01;;;;;;;6.20;5.60;;;11.40;99.90;;;;;;5115277;28;20162;-67
2022/05/08 03:16:28;;;;;;;9.77;6.30;;;11.20;99.90;;;;;;5115178;28;20170;-68
2022/05/08 03:18:55;;;;;;;7.37;5.27;;;11.20;99.90;;;;;;5114848;28;20187;-67
2022/05/08 03:21:21;;;;;;;6.93;5.10;;;11.20;99.90;;;;;;5115089;28;20155;-67
2022/05/08 03:23:47;;;;;;;7.70;5.77;;;11.30;99.90;;;;;;5115423;28;20215;-66
2022/05/08 03:26:14;;;;;;;9.03;5.27;;;11.10;99.90;;;;;;5114679;28;20241;-68
2022/05/08 03:28:41;;;;;;;6.90;5.37;;;11.20;99.90;;;;;;5098164;28;20189;-67
2022/05/08 03:31:07;;;;;;;9.00;6.10;;;11.10;99.90;;;;;;5121473;28;20164;-68
2022/05/08 03:33:34;;;;;;;5.80;5.20;;;10.90;99.90;;;;;;5122819;28;20158;-67
2022/05/08 03:36:00;;;;;;;5.93;5.17;;;10.90;99.90;;;;;;5106175;28;20170;-67
2022/05/08 03:38:27;;;;;;;6.57;5.83;;;10.90;99.90;;;;;;5121553;28;20173;-69
2022/05/08 03:40:54;;;;;;;6.97;5.43;;;10.80;99.90;;;;;;5117872;28;20185;-68
2022/05/08 03:43:21;;;;;;;6.70;5.57;;;10.90;99.90;;;;;;5100332;28;20181;-67
2022/05/08 03:45:50;;;;;;;10.40;6.30;;;10.80;99.90;;;;;;5118597;28;20162;-66
2022/05/08 03:48:20;;;;;;;12.27;6.00;;;10.90;99.90;;;;;;5118503;28;20227;-65
2022/05/08 03:50:46;;;;;;;6.20;5.60;;;10.70;99.90;;;;;;5100538;28;20223;-67
2022/05/08 03:53:12;;;;;;;7.27;5.33;;;10.80;99.90;;;;;;5118528;28;20170;-68
2022/05/08 03:55:38;;;;;;;9.27;5.40;;;10.80;99.90;;;;;;5119142;28;20184;-66
2022/05/08 03:58:04;;;;;;;9.37;5.80;;;10.90;99.90;;;;;;5120015;28;20154;-66
2022/05/08 04:00:30;;;;;;;8.83;6.20;;;10.80;99.90;;;;;;5117808;28;20173;-66
2022/05/08 04:02:55;;;;;;;7.60;5.80;;;10.90;99.90;;;;;;5118368;28;20306;-65
2022/05/08 04:05:22;;;;;;;10.43;5.50;;;10.80;99.90;;;;;;5117871;28;20197;-66
2022/05/08 04:07:48;;;;;;;8.17;5.37;;;11.00;99.90;;;;;;5117449;28;20293;-67
2022/05/08 04:10:14;;;;;;;7.60;5.33;;;11.00;99.90;;;;;;5117876;28;20699;-69
2022/05/08 04:12:42;;;;;;;7.07;5.30;;;10.90;99.90;;;;;;5117888;28;20190;-67
2022/05/08 04:16:15;;;;;;;6.43;5.53;;;10.80;99.90;;;;;;5117474;28;20150;-66
2022/05/08 04:17:54;;;;;;;6.97;5.63;;;10.80;99.90;;;;;;5117947;28;20566;-66
2022/05/08 04:20:20;;;;;;;8.20;5.90;;;10.70;99.90;;;;;;5117387;28;20182;-66
2022/05/08 04:25:29;;;;;;;7.77;5.83;;;11.10;99.90;;;;;;5117869;28;20161;-67
2022/05/08 04:27:55;;;;;;;8.43;5.70;;;10.90;99.90;;;;;;5117297;28;20198;-66
2022/05/08 04:30:21;;;;;;;6.87;5.53;;;10.90;99.90;;;;;;5118154;28;20165;-66
2022/05/08 04:32:46;;;;;;;8.23;5.53;;;11.00;99.90;;;;;;5119059;28;20173;-66
2022/05/08 04:35:12;;;;;;;6.57;5.37;;;11.10;99.90;;;;;;5103473;28;20170;-66
2022/05/08 04:37:37;;;;;;;10.33;5.87;;;11.20;99.90;;;;;;5119827;28;20594;-65
2022/05/08 04:40:03;;;;;;;8.80;6.07;;;11.20;99.90;;;;;;5118480;28;20155;-66
2022/05/08 04:42:29;;;;;;;7.43;5.50;;;11.10;99.90;;;;;;5099329;28;20180;-66
2022/05/08 04:44:55;;;;;;;8.60;5.47;;;11.20;99.90;;;;;;5116808;28;20162;-65
2022/05/08 04:47:21;;;;;;;7.47;5.80;;;11.10;99.90;;;;;;5117512;28;20218;-66
2022/05/08 04:49:48;;;;;;;6.70;5.00;;;11.10;99.90;;;;;;5116957;28;20267;-66
2022/05/08 04:52:13;;;;;;;6.60;5.50;;;11.00;99.90;;;;;;5117288;28;20158;-68
2022/05/08 04:54:39;;;;;;;6.63;5.33;;;11.20;99.90;;;;;;5119401;28;20174;-66
2022/05/08 04:57:04;;;;;;;6.83;5.90;;;11.30;99.90;;;;;;5118039;28;20222;-65
2022/05/08 04:59:30;;;;;;;6.13;5.27;;;11.40;99.90;;;;;;5098564;28;20197;-65
2022/05/08 05:01:57;;;;;;;7.47;5.57;;;11.50;99.90;;;;;;5116833;28;20586;-67
2022/05/08 05:04:22;;;;;;;7.60;5.17;;;11.70;99.90;;;;;;5116331;28;20238;-67
2022/05/08 05:06:49;;;;;;;7.23;5.43;;;11.70;99.90;;;;;;5116996;28;20190;-65
2022/05/08 05:09:14;;;;;;;7.53;5.50;;;11.70;99.90;;;;;;5117228;28;20154;-66
2022/05/08 05:11:40;;;;;;;10.73;5.77;;;11.80;99.90;;;;;;5117055;28;20163;-67
2022/05/08 05:14:05;;;;;;;7.77;5.90;;;11.70;99.90;;;;;;5116760;28;20159;-67
2022/05/08 05:16:31;;;;;;;7.77;5.67;;;11.60;99.90;;;;;;5116636;28;20208;-66
2022/05/08 05:18:57;;;;;;;6.77;5.40;;;11.90;99.90;;;;;;5117630;28;20238;-66
2022/05/08 05:21:22;;;;;;;5.93;5.10;;;12.00;99.90;;;;;;5118623;28;20170;-66
2022/05/08 05:23:48;;;;;;;8.43;5.77;;;12.00;99.90;;;;;;5116960;28;20158;-66
2022/05/08 05:26:13;;;;;;;6.47;4.70;;;12.10;99.90;;;;;;5116683;28;20158;-66
2022/05/08 05:28:39;;;;;;;6.10;5.40;;;12.20;99.90;;;;;;5116612;28;20167;-66
2022/05/08 05:31:05;;;;;;;8.00;4.97;;;12.10;99.90;;;;;;5098765;28;20213;-66
2022/05/08 05:33:30;;;;;;;6.20;5.07;;;12.20;99.90;;;;;;5116948;28;20170;-66
2022/05/08 05:35:56;;;;;;;7.93;5.23;;;12.20;99.90;;;;;;5116889;28;20172;-67
2022/05/08 05:38:22;;;;;;;7.63;5.43;;;12.20;99.90;;;;;;5116713;28;20179;-66
2022/05/08 05:40:47;;;;;;;7.37;5.07;;;12.50;99.90;;;;;;5118537;28;20174;-67
2022/05/08 05:43:13;;;;;;;8.30;5.53;;;12.30;99.90;;;;;;5122334;28;20612;-68
2022/05/08 05:45:41;;;;;;;6.57;5.57;;;12.30;99.90;;;;;;5123602;28;20166;-67
2022/05/08 05:48:07;;;;;;;13.40;5.23;;;12.70;99.90;;;;;;5125600;28;20629;-66
2022/05/08 05:50:33;;;;;;;10.20;5.43;;;12.60;99.90;;;;;;5124870;28;20237;-66
2022/05/08 05:52:59;;;;;;;6.00;4.80;;;12.80;99.90;;;;;;5125475;28;20494;-67
2022/05/08 05:55:25;;;;;;;7.93;5.60;;;12.80;99.90;;;;;;5118458;28;20236;-66
2022/05/08 05:57:51;;;;;;;6.50;5.23;;;12.80;99.90;;;;;;5122686;28;20621;-66
2022/05/08 06:00:18;;;;;;;6.60;5.60;;;12.80;99.90;;;;;;5106698;28;20181;-68
2022/05/08 06:02:45;;;;;;;11.47;5.90;;;13.00;99.90;;;;;;5124024;28;20244;-67
2022/05/08 06:05:12;;;;;;;7.80;6.00;;;13.20;99.90;;;;;;5124060;28;20178;-67
2022/05/08 06:07:39;;;;;;;9.03;6.07;;;13.30;99.90;;;;;;5126970;28;20190;-67
2022/05/08 06:10:07;;;;;;;8.63;5.43;;;13.50;99.90;;;;;;5126372;28;20177;-67
2022/05/08 06:12:33;;;;;;;6.10;5.27;;;13.50;99.90;;;;;;5127580;28;20220;-66
2022/05/08 06:14:59;;;;;;;5.67;5.10;;;13.70;99.90;;;;;;5109756;28;20594;-68
2022/05/08 06:17:25;;;;;;;6.97;5.43;;;13.90;99.90;;;;;;5125032;28;20159;-66
2022/05/08 06:19:50;;;;;;;7.70;6.03;;;14.20;99.90;;;;;;5123451;28;20163;-67
2022/05/08 06:22:16;;;;;;;7.53;5.80;;;14.10;99.90;;;;;;5121278;28;20176;-67
2022/05/08 06:24:42;;;;;;;10.73;6.70;;;14.20;99.90;;;;;;5116787;28;20162;-66
2022/05/08 06:27:07;;;;;;;7.40;5.73;;;14.50;99.90;;;;;;5117336;28;20193;-66
2022/05/08 06:29:33;;;;;;;7.77;6.67;;;14.80;99.90;;;;;;5117142;28;20175;-67
2022/05/08 06:32:00;;;;;;;9.43;6.13;;;15.00;99.90;;;;;;5115881;28;20170;-66
2022/05/08 06:34:26;;;;;;;9.07;6.17;;;15.40;99.90;;;;;;5115086;28;20566;-65
2022/05/08 06:36:52;;;;;;;10.17;6.43;;;15.60;99.90;;;;;;5115276;28;20158;-67
2022/05/08 06:39:18;;;;;;;8.27;6.10;;;15.80;99.90;;;;;;5114994;28;20609;-66
2022/05/08 06:41:44;;;;;;;7.53;6.73;;;15.90;99.90;;;;;;5117325;28;20155;-66
2022/05/08 06:44:10;;;;;;;9.03;7.10;;;16.10;99.90;;;;;;5117001;28;20173;-66
2022/05/08 06:46:36;;;;;;;7.47;6.40;;;16.10;99.90;;;;;;5095696;28;20202;-67
2022/05/08 06:49:05;;;;;;;7.60;6.17;;;16.10;99.90;;;;;;5114238;28;20235;-65
2022/05/08 06:51:31;;;;;;;10.27;6.67;;;16.10;99.90;;;;;;5114594;28;20539;-65
2022/05/08 06:53:56;;;;;;;9.90;6.93;;;16.20;99.90;;;;;;5114300;28;20174;-67
2022/05/08 06:56:22;;;;;;;7.63;6.60;;;16.30;99.90;;;;;;5114105;28;20167;-67
2022/05/08 07:01:35;;;;;;;7.37;6.40;;;16.40;99.90;;;;;;5114311;28;20642;-66
2022/05/08 07:04:09;;;;;;;9.97;6.73;;;16.60;99.90;;;;;;5113873;28;20676;-66
2022/05/08 07:06:37;;;;;;;8.73;6.50;;;16.50;99.90;;;;;;5114488;28;20204;-67
2022/05/08 07:09:04;;;;;;;9.17;6.63;;;16.40;99.90;;;;;;5114238;28;20173;-68
2022/05/08 07:11:30;;;;;;;8.47;6.73;;;16.80;99.90;;;;;;5114868;28;20181;-66
2022/05/08 07:13:56;;;;;;;10.33;7.47;;;16.80;99.90;;;;;;5096506;28;20182;-68
2022/05/08 07:16:22;;;;;;;6.80;5.95;;;16.80;99.90;;;;;;5118683;28;20173;-67
2022/05/08 07:18:48;;;;;;;10.18;6.47;;;16.90;99.90;;;;;;5117740;28;20166;-67
2022/05/08 07:21:13;;;;;;;8.60;6.70;;;17.10;99.90;;;;;;5118564;28;20625;-68
2022/05/08 07:23:39;;;;;;;8.25;6.47;;;17.30;99.90;;;;;;5117965;28;20621;-67
2022/05/08 07:26:06;;;;;;;8.80;5.78;;;17.30;99.90;;;;;;5117483;28;20663;-68
2022/05/08 07:28:32;;;;;;;6.85;6.15;;;17.30;99.90;;;;;;5117650;28;20187;-68
2022/05/08 07:30:58;;;;;;;9.27;6.30;;;17.60;99.90;;;;;;5117488;28;20158;-67
2022/05/08 07:33:23;;;;;;;7.05;6.15;;;17.70;99.90;;;;;;5117224;28;20200;-68
2022/05/08 07:38:33;;;;;;;9.05;6.18;;;17.70;99.90;;;;;;5118138;28;20166;-67
2022/05/08 07:40:59;;;;;;;7.68;5.68;;;17.70;99.90;;;;;;5102514;28;20174;-67
2022/05/08 07:43:25;;;;;;;10.05;6.15;;;17.80;99.90;;;;;;5102675;28;20206;-67
2022/05/08 07:45:51;;;;;;;7.65;6.00;;;17.90;99.90;;;;;;5100887;28;20588;-67
2022/05/08 07:48:17;;;;;;;7.40;6.13;;;18.10;99.90;;;;;;5117533;28;20327;-67
2022/05/08 07:50:45;;;;;;;9.23;7.07;;;18.00;99.90;;;;;;5099659;28;20272;-70
2022/05/08 07:53:12;;;;;;;7.93;6.25;;;18.20;99.90;;;;;;5118022;28;20157;-68
2022/05/08 07:55:38;;;;;;;6.80;6.10;;;18.30;99.90;;;;;;5119271;28;20161;-68
2022/05/08 07:58:04;;;;;;;8.35;6.43;;;18.50;99.90;;;;;;5118210;28;20159;-69
2022/05/08 08:00:29;;;;;;;7.32;6.18;;;18.30;99.90;;;;;;5117213;28;20195;-68
2022/05/08 08:02:55;;;;;;;8.15;6.35;;;18.70;99.90;;;;;;5118351;28;20569;-67
2022/05/08 08:05:21;;;;;;;7.32;6.18;;;18.40;99.90;;;;;;5119136;28;20163;-66
2022/05/08 08:07:47;;;;;;;9.93;6.43;;;18.30;99.90;;;;;;5119150;28;20285;-68
2022/05/08 08:10:13;;;;;;;17.00;9.05;;;18.00;99.90;;;;;;5118605;28;20598;-68
2022/05/08 08:12:39;;;;;;;9.73;6.55;;;17.80;99.90;;;;;;5118781;28;20169;-68
2022/05/08 08:15:05;;;;;;;10.65;6.50;;;17.80;99.90;;;;;;5117452;28;20147;-67
2022/05/08 08:17:31;;;;;;;7.43;6.43;;;17.70;99.90;;;;;;5117156;28;20162;-67
2022/05/08 08:19:57;;;;;;;9.05;7.18;;;17.80;99.90;;;;;;5116504;28;20154;-69
2022/05/08 08:22:22;;;;;;;8.93;6.93;;;17.90;99.90;;;;;;5117571;28;20170;-67
2022/05/08 08:24:49;;;;;;;7.82;6.38;;;18.00;99.90;;;;;;5117331;28;20158;-67
2022/05/08 08:27:16;;;;;;;7.20;6.50;;;18.20;99.90;;;;;;5117941;28;20282;-67
2022/05/08 08:29:42;;;;;;;7.75;6.55;;;18.60;99.90;;;;;;5118270;28;20570;-68
2022/05/08 08:32:08;;;;;;;9.35;6.78;;;18.70;99.90;;;;;;5116377;28;20220;-68
2022/05/08 08:34:33;;;;;;;8.60;7.13;;;18.70;99.90;;;;;;5116539;28;20161;-67
2022/05/08 08:36:59;;;;;;;9.95;7.10;;;18.70;99.90;;;;;;5116538;28;20512;-68
2022/05/08 08:39:25;;;;;;;8.65;7.20;;;18.70;99.90;;;;;;5116455;28;20246;-68
2022/05/08 08:42:07;;;;;;;9.25;6.78;;;18.80;99.90;;;;;;5098155;28;20196;-66
2022/05/08 08:50:05;;;;;;;9.57;6.40;;;19.20;99.90;;;;;;5115477;28;20569;-67
2022/05/08 08:52:32;;;;;;;9.38;7.55;;;19.30;99.90;;;;;;5114951;28;20168;-66
2022/05/08 08:54:59;;;;;;;8.55;6.78;;;19.20;99.90;;;;;;5115010;28;20189;-68
2022/05/08 08:57:24;;;;;;;10.80;6.60;;;19.30;99.90;;;;;;5115069;28;20239;-68
2022/05/08 08:59:50;;;;;;;10.85;6.68;;;19.40;99.90;;;;;;5115138;28;20204;-67
2022/05/08 09:02:17;;;;;;;8.77;6.05;;;19.40;99.90;;;;;;5115295;28;20243;-67
2022/05/08 09:04:48;;;;;;;7.47;6.40;;;19.70;99.90;;;;;;5115537;28;20244;-71
2022/05/08 09:07:39;;;;;;;7.55;6.47;;;20.00;99.90;;;;;;5114884;28;20194;-67
2022/05/08 09:10:15;;;;;;;8.30;6.75;;;19.90;99.90;;;;;;5096415;28;20204;-68
2022/05/08 09:12:52;;;;;;;7.80;7.00;;;20.10;99.90;;;;;;5114295;28;20170;-68
2022/05/08 09:15:21;;;;;;;10.93;6.95;;;20.00;99.90;;;;;;5114483;28;20233;-68
2022/05/08 09:17:49;;;;;;;8.85;6.90;;;20.00;99.90;;;;;;5114563;28;20158;-69
2022/05/08 09:20:33;;;;;;;7.22;6.18;;;20.30;99.90;;;;;;5114729;28;20154;-68
2022/05/08 09:23:12;;;;;;;8.05;5.22;;;20.20;99.90;;;;;;5114659;28;20193;-70
2022/05/08 09:25:44;;;;;;;8.13;6.60;;;20.20;99.90;;;;;;5114735;28;20163;-68
2022/05/08 09:28:14;;;;;;;6.47;5.68;;;20.20;99.90;;;;;;5114233;28;20262;-68
2022/05/08 09:30:59;;;;;;;8.50;6.53;;;20.40;99.90;;;;;;5116143;28;20164;-68
2022/05/08 09:33:28;;;;;;;9.95;6.22;;;20.20;99.90;;;;;;5114299;28;20613;-68
2022/05/08 09:35:55;;;;;;;6.40;5.70;;;20.40;99.90;;;;;;5113910;28;20317;-68
2022/05/08 09:38:21;;;;;;;7.85;6.53;;;21.00;99.90;;;;;;5113564;28;20204;-68
2022/05/08 09:41:04;;;;;;;6.75;5.47;;;20.80;99.90;;;;;;5114193;28;20651;-68
2022/05/08 09:43:30;;;;;;;6.80;6.00;;;20.70;99.90;;;;;;5113921;28;20162;-69
2022/05/08 09:45:57;;;;;;;10.27;6.22;;;20.90;99.90;;;;;;5114338;28;20215;-70
2022/05/08 09:48:26;;;;;;;13.73;7.28;;;20.90;99.90;;;;;;5113935;28;20200;-67
2022/05/08 09:50:56;;;;;;;7.40;5.82;;;20.50;99.90;;;;;;5113693;28;20169;-70
2022/05/08 09:53:22;;;;;;;8.93;5.70;;;20.50;99.90;;;;;;5114093;28;20611;-69
2022/05/08 09:55:48;;;;;;;6.68;5.75;;;20.90;99.90;;;;;;5113883;28;20158;-69
2022/05/08 09:58:14;;;;;;;6.95;5.88;;;20.90;99.90;;;;;;5113695;28;20613;-69
2022/05/08 10:00:42;;;;;;;9.15;5.07;;;21.30;99.90;;;;;;5113641;28;20158;-69
2022/05/08 10:03:07;;;;;;;8.93;6.38;;;21.60;99.90;;;;;;5114103;28;20225;-68
2022/05/08 10:05:36;;;;;;;8.15;6.53;;;20.70;99.90;;;;;;5113842;28;20296;-67
2022/05/08 10:08:03;;;;;;;9.10;6.78;;;20.30;99.90;;;;;;5113699;28;20288;-67
2022/05/08 10:16:48;;;;;;;8.10;6.60;;;20.90;99.90;;;;;;5114178;28;20555;-67
2022/05/08 10:19:16;;;;;;;6.60;5.80;;;21.00;99.90;;;;;;5113701;28;20601;-69
2022/05/08 10:21:57;;;;;;;7.50;6.22;;;20.90;99.90;;;;;;5113472;28;20155;-67
2022/05/08 10:24:38;;;;;;;9.75;5.78;;;21.40;99.90;;;;;;5113476;28;20188;-69
2022/05/08 10:27:11;;;;;;;5.85;5.10;;;21.30;99.90;;;;;;5113785;28;20247;-67
2022/05/08 10:29:49;;;;;;;6.65;5.28;;;21.40;99.90;;;;;;5113622;28;20253;-67
2022/05/08 10:32:33;;;;;;;5.57;4.97;;;21.70;99.90;;;;;;5113589;28;20166;-68
2022/05/08 10:35:19;;;;;;;11.55;5.63;;;21.60;99.90;;;;;;5112864;28;20158;-67
2022/05/08 10:37:47;;;;;;;6.70;5.72;;;21.70;99.90;;;;;;5113215;28;20166;-68
2022/05/08 10:40:22;;;;;;;10.18;6.20;;;22.00;99.90;;;;;;5113146;28;20529;-68
2022/05/08 10:42:48;;;;;;;11.10;5.97;;;21.90;99.90;;;;;;5112506;28;20232;-68
2022/05/08 10:45:32;;;;;;;7.68;5.45;;;22.00;99.90;;;;;;5114201;28;20158;-69
2022/05/08 10:48:08;;;;;;;6.40;5.70;;;21.90;99.90;;;;;;5116442;28;20280;-69
2022/05/08 10:50:39;;;;;;;6.10;5.03;;;22.00;99.90;;;;;;5120094;28;20607;-70
2022/05/08 10:53:06;;;;;;;8.23;5.40;;;21.80;99.90;;;;;;5121767;28;20154;-69
2022/05/08 10:55:32;;;;;;;6.32;5.15;;;21.70;99.90;;;;;;5115123;28;20158;-68
2022/05/08 10:57:58;;;;;;;6.13;5.00;;;22.00;99.90;;;;;;5113793;28;20162;-70
2022/05/08 11:00:26;;;;;;;9.23;5.15;;;22.20;99.90;;;;;;5095337;28;20234;-69
2022/05/08 11:02:58;;;;;;;6.15;5.20;;;22.30;99.90;;;;;;5114209;28;20615;-70
2022/05/08 11:05:38;;;;;;;6.25;5.35;;;22.10;99.90;;;;;;5113924;28;20166;-70
2022/05/08 11:08:10;;;;;;;6.15;5.40;;;22.10;99.90;;;;;;5113641;28;20292;-68
2022/05/08 11:10:42;;;;;;;6.07;5.47;;;22.30;99.90;;;;;;5114219;28;20614;-67
2022/05/08 11:13:12;;;;;;;6.65;4.93;;;22.30;99.90;;;;;;5113807;28;20166;-68
2022/05/08 11:15:43;;;;;;;6.78;4.88;;;22.10;99.90;;;;;;5114141;28;20590;-70
2022/05/08 11:18:27;;;;;;;4.88;4.40;;;22.60;99.10;;;;;;5113594;28;20166;-69
2022/05/08 11:20:57;;;;;;;9.75;5.35;;;21.80;99.90;;;;;;5113434;28;20171;-68
2022/05/08 11:23:34;;;;;;;6.30;5.00;;;21.80;99.90;;;;;;5094717;28;20202;-69
2022/05/08 11:26:05;;;;;;;6.05;4.70;;;22.50;99.90;;;;;;5113736;28;20504;-69
2022/05/08 11:28:32;;;;;;;7.15;4.13;;;22.20;99.90;;;;;;5112837;28;20198;-68
2022/05/08 11:30:59;;;;;;;8.07;4.50;;;22.40;99.90;;;;;;5113054;28;20166;-69
2022/05/08 11:36:27;;;;;;;5.50;4.30;;;21.80;99.90;;;;;;5112828;28;20168;-68
2022/05/08 11:39:20;;;;;;;8.25;4.88;;;21.60;99.90;;;;;;5113296;28;20162;-68
2022/05/08 11:41:48;;;;;;;7.38;4.82;;;21.90;99.90;;;;;;5108287;28;20193;-68
2022/05/08 11:44:14;;;;;;;5.47;4.80;;;21.90;99.90;;;;;;5113210;28;20163;-70
2022/05/08 11:46:50;;;;;;;6.93;4.50;;;22.10;99.90;;;;;;5113219;28;20652;-69
2022/05/08 11:49:23;;;;;;;5.63;4.88;;;22.10;99.90;;;;;;5112779;28;20173;-69
2022/05/08 11:51:54;;;;;;;5.10;4.60;;;22.50;99.90;;;;;;5094926;28;20178;-68
2022/05/08 11:54:28;;;;;;;4.68;4.20;;;22.80;99.90;;;;;;5112519;28;20213;-69
2022/05/08 11:57:14;;;;;;;5.90;4.72;;;22.10;99.30;;;;;;5113447;28;20171;-69
2022/05/08 11:59:40;;;;;;;5.22;4.72;;;21.60;99.90;;;;;;5115014;28;20253;-69
2022/05/08 12:02:06;;;;;;;5.40;4.20;;;21.70;99.90;;;;;;5117774;28;20166;-70
2022/05/08 12:04:33;;;;;;;6.57;4.57;;;22.20;99.90;;;;;;5117556;28;20237;-70
2022/05/08 12:07:07;;;;;;;5.85;4.18;;;22.70;99.90;;;;;;5117835;28;20278;-70
2022/05/08 12:09:46;;;;;;;6.68;4.72;;;22.90;99.60;;;;;;5116717;28;20281;-68
2022/05/08 12:12:29;;;;;;;7.63;4.90;;;23.10;98.60;;;;;;5116520;28;20157;-70
2022/05/08 12:15:07;;;;;;;6.65;4.80;;;22.90;98.40;;;;;;5117952;28;20169;-69
2022/05/08 12:17:42;;;;;;;7.32;5.05;;;22.70;98.80;;;;;;5118602;28;20690;-70
2022/05/08 12:20:28;;;;;;;5.40;4.38;;;22.10;99.90;;;;;;5116867;28;20176;-68
2022/05/08 12:23:08;;;;;;;6.15;4.32;;;21.80;99.90;;;;;;5116798;28;20173;-69
2022/05/08 12:25:41;;;;;;;4.68;4.15;;;21.40;99.90;;;;;;5116739;28;20165;-70
2022/05/08 12:28:07;;;;;;;5.47;4.28;;;21.80;99.90;;;;;;5116600;28;20555;-69
2022/05/08 12:30:34;;;;;;;6.55;4.60;;;21.50;99.90;;;;;;5116816;28;20566;-69
2022/05/08 12:32:59;;;;;;;6.20;4.43;;;21.50;99.90;;;;;;5116695;28;20509;-69
2022/05/08 12:35:25;;;;;;;6.38;4.85;;;21.30;99.90;;;;;;5118588;28;20162;-68
2022/05/08 12:37:51;;;;;;;5.43;4.03;;;21.20;99.90;;;;;;5119385;28;20586;-69
2022/05/08 12:40:17;;;;;;;5.53;4.30;;;21.20;99.90;;;;;;5099317;28;20265;-68
2022/05/08 12:42:43;;;;;;;4.82;4.22;;;21.10;99.90;;;;;;5119139;28;20201;-69
2022/05/08 12:45:10;;;;;;;4.35;3.95;;;21.00;99.90;;;;;;5118934;28;20162;-69
2022/05/08 12:47:36;;;;;;;4.70;4.20;;;21.00;99.90;;;;;;5118159;28;20190;-70
2022/05/08 12:50:03;;;;;;;4.50;4.10;;;21.10;99.90;;;;;;5121421;28;20161;-71
2022/05/08 12:52:28;;;;;;;5.47;4.35;;;21.00;99.90;;;;;;5119046;28;20174;-67
2022/05/08 12:54:54;;;;;;;5.65;4.20;;;21.00;99.90;;;;;;5118448;28;20207;-68
2022/05/08 13:00:05;;;;;;;4.10;3.70;;;21.20;99.90;;;;;;5118658;28;20181;-69
2022/05/08 13:02:30;;;;;;;4.82;3.90;;;21.20;99.90;;;;;;5118277;28;20613;-70
2022/05/08 13:04:56;;;;;;;4.20;3.58;;;21.30;99.70;;;;;;5100284;28;20178;-69
2022/05/08 13:07:22;;;;;;;5.45;3.10;;;21.10;98.70;;;;;;5100034;28;20201;-70
2022/05/08 13:09:49;;;;;;;4.70;3.75;;;21.30;98.80;;;;;;5116620;28;20215;-69
2022/05/08 13:12:14;;;;;;;4.25;3.55;;;21.60;97.30;;;;;;5115888;28;20536;-68
2022/05/08 13:14:40;;;;;;;4.82;3.28;;;22.60;95.50;;;;;;5115912;28;20154;-70
2022/05/08 13:17:06;;;;;;;3.10;2.80;;;22.80;94.10;;;;;;5115630;28;20194;-68
2022/05/08 13:19:36;;;;;;;3.95;3.05;;;22.30;95.50;;;;;;5116211;28;20441;-69
2022/05/08 13:22:06;;;;;;;4.10;3.00;;;21.90;97.40;;;;;;5115696;28;20193;-70